Time;durP1;ratioP1;P1;durP2;ratioP2;P2;SDS_P1;SDS_P2;PMS_P1;PMS_P2;Temp;Humidity;BMP_temperature;BMP_pressure;BME280_temperature;BME280_humidity;BME280_pressure;Samples;Min_cycle;Max_cycle;Signal;HPM_P1;HPM_P2
2024/01/28 00:00:38;;;;;;;;;;;;;;;13.88;35.37;101534.13;4466394;32;31253;-83
2024/01/28 00:03:06;;;;;;;;;;;;;;;13.95;35.13;101526.75;4466371;32;34174;-85
2024/01/28 00:05:34;;;;;;;;;;;;;;;13.43;35.53;101523.66;4470446;32;35247;-84
2024/01/28 00:08:01;;;;;;;;;;;;;;;13.41;35.75;101530.47;4470036;32;33531;-85
2024/01/28 00:10:29;;;;;;;;;;;;;;;13.67;35.55;101528.53;4472821;32;33360;-83
2024/01/28 00:12:56;;;;;;;;;;;;;;;13.60;35.44;101532.50;4476993;32;35064;-85
2024/01/28 00:15:23;;;;;;;;;;;;;;;13.23;36.01;101534.50;4468784;32;34726;-83
2024/01/28 00:17:55;;;;;;;;;;;;;;;13.51;35.62;101526.72;4462902;32;34100;-86
2024/01/28 00:20:23;;;;;;;;;;;;;;;13.66;35.30;101526.75;4475642;32;33631;-84
2024/01/28 00:22:51;;;;;;;;;;;;;;;13.70;35.32;101529.63;4482920;32;33915;-83
2024/01/28 00:25:18;;;;;;;;;;;;;;;13.85;34.79;101527.03;4469748;32;34554;-83
2024/01/28 00:27:45;;;;;;;;;;;;;;;13.92;34.71;101525.69;4473738;32;34819;-83
2024/01/28 00:30:13;;;;;;;;;;;;;;;13.46;35.62;101528.13;4477597;32;34185;-85
2024/01/28 00:32:41;;;;;;;;;;;;;;;13.87;34.87;101528.03;4471043;32;34787;-83
2024/01/28 00:35:09;;;;;;;;;;;;;;;13.35;35.64;101535.31;4471398;32;34193;-83
2024/01/28 00:37:37;;;;;;;;;;;;;;;13.19;36.01;101538.59;4475103;32;33942;-84
2024/01/28 00:40:05;;;;;;;;;;;;;;;12.96;36.44;101539.78;4470347;32;33630;-86
2024/01/28 00:42:32;;;;;;;;;;;;;;;13.25;35.79;101532.88;4472961;32;33951;-84
2024/01/28 00:45:02;;;;;;;;;;;;;;;12.68;36.89;101543.22;4481228;32;34963;-87
2024/01/28 00:47:29;;;;;;;;;;;;;;;12.89;36.79;101542.81;4477428;32;34758;-84
2024/01/28 00:49:57;;;;;;;;;;;;;;;13.23;36.07;101551.03;4472571;32;33833;-84
2024/01/28 00:52:24;;;;;;;;;;;;;;;13.01;36.28;101543.56;4483937;32;34828;-85
2024/01/28 00:54:52;;;;;;;;;;;;;;;13.37;35.71;101549.31;4477942;32;33358;-83
2024/01/28 00:57:19;;;;;;;;;;;;;;;12.87;36.32;101544.41;4472954;32;34252;-83
2024/01/28 00:59:47;;;;;;;;;;;;;;;13.49;35.19;101549.16;4465780;32;33093;-85
2024/01/28 01:02:14;;;;;;;;;;;;;;;13.10;35.78;101549.34;4471699;32;35049;-85
2024/01/28 01:04:41;;;;;;;;;;;;;;;13.27;35.46;101552.09;4471726;32;33796;-87
2024/01/28 01:07:09;;;;;;;;;;;;;;;12.64;36.36;101546.44;4456468;32;33444;-83
2024/01/28 01:09:36;;;;;;;;;;;;;;;13.67;34.52;101554.56;4456049;32;32952;-86
2024/01/28 01:12:04;;;;;;;;;;;;;;;13.14;35.45;101547.84;4470267;32;33606;-85
2024/01/28 01:14:35;;;;;;;;;;;;;;;13.06;35.46;101551.69;4471556;32;34230;-83
2024/01/28 01:17:02;;;;;;;;;;;;;;;12.45;36.73;101556.44;4481270;32;33919;-84
2024/01/28 01:19:30;;;;;;;;;;;;;;;12.96;35.91;101560.56;4469823;32;33799;-85
2024/01/28 01:21:58;;;;;;;;;;;;;;;13.28;35.35;101560.00;4469940;32;34848;-84
2024/01/28 01:24:25;;;;;;;;;;;;;;;13.12;35.53;101568.56;4478121;32;34124;-83
2024/01/28 01:26:52;;;;;;;;;;;;;;;12.68;36.15;101558.84;4475052;32;34925;-85
2024/01/28 01:29:20;;;;;;;;;;;;;;;13.36;35.03;101552.69;4473810;32;34050;-82
2024/01/28 01:31:47;;;;;;;;;;;;;;;13.20;35.10;101565.56;4470405;32;33944;-83
2024/01/28 01:34:14;;;;;;;;;;;;;;;12.88;35.74;101556.59;4476707;32;33948;-85
2024/01/28 01:36:43;;;;;;;;;;;;;;;13.92;34.00;101557.81;4471486;32;33894;-84
2024/01/28 01:39:10;;;;;;;;;;;;;;;13.42;34.71;101557.38;4460854;32;32807;-86
2024/01/28 01:41:37;;;;;;;;;;;;;;;13.75;34.29;101548.09;4476135;32;34288;-85
2024/01/28 01:44:05;;;;;;;;;;;;;;;13.01;35.75;101547.88;4481097;32;35227;-85
2024/01/28 01:46:32;;;;;;;;;;;;;;;12.52;36.66;101545.66;4478200;32;34675;-84
2024/01/28 01:48:59;;;;;;;;;;;;;;;13.05;35.71;101555.06;4457281;32;33104;-82
2024/01/28 01:51:27;;;;;;;;;;;;;;;12.92;35.68;101558.59;4476008;32;34719;-85
2024/01/28 01:53:54;;;;;;;;;;;;;;;13.31;35.06;101567.16;4473649;32;34584;-86
2024/01/28 01:56:22;;;;;;;;;;;;;;;13.14;35.43;101547.84;4475435;32;34254;-84
2024/01/28 01:58:49;;;;;;;;;;;;;;;12.69;36.29;101557.12;4473233;32;33750;-86
2024/01/28 02:01:17;;;;;;;;;;;;;;;12.64;36.18;101562.03;4469914;32;33898;-84
2024/01/28 02:03:45;;;;;;;;;;;;;;;12.96;35.79;101550.19;4452786;32;33555;-85
2024/01/28 02:06:13;;;;;;;;;;;;;;;12.11;37.29;101559.41;4469182;32;33863;-84
2024/01/28 02:08:40;;;;;;;;;;;;;;;12.70;36.23;101557.22;4478965;32;33538;-86
2024/01/28 02:11:08;;;;;;;;;;;;;;;12.48;36.60;101557.56;4480394;32;34918;-83
2024/01/28 02:13:35;;;;;;;;;;;;;;;12.27;37.00;101546.66;4470327;32;33964;-85
2024/01/28 02:16:02;;;;;;;;;;;;;;;12.63;36.33;101539.44;4479605;32;34232;-83
2024/01/28 02:18:29;;;;;;;;;;;;;;;12.59;36.43;101551.34;4474552;32;33612;-85
2024/01/28 02:20:57;;;;;;;;;;;;;;;12.67;36.00;101554.44;4480004;32;33660;-86
2024/01/28 02:23:24;;;;;;;;;;;;;;;12.19;36.82;101566.03;4458716;32;33171;-83
2024/01/28 02:25:52;;;;;;;;;;;;;;;12.14;37.24;101572.63;4478873;32;33513;-85
2024/01/28 02:28:21;;;;;;;;;;;;;;;12.10;37.33;101570.62;4471237;32;33481;-86
2024/01/28 02:30:48;;;;;;;;;;;;;;;12.18;37.40;101582.41;4469922;32;34865;-84
2024/01/28 02:33:16;;;;;;;;;;;;;;;12.15;37.15;101579.63;4482347;32;33989;-84
2024/01/28 02:35:43;;;;;;;;;;;;;;;12.57;36.39;101578.03;4470574;32;33709;-85
2024/01/28 02:38:11;;;;;;;;;;;;;;;12.17;37.26;101578.91;4469106;32;33087;-83
2024/01/28 02:40:39;;;;;;;;;;;;;;;12.00;37.59;101582.97;4469346;32;33741;-86
2024/01/28 02:43:07;;;;;;;;;;;;;;;12.34;36.95;101587.84;4456058;32;32466;-85
2024/01/28 02:45:34;;;;;;;;;;;;;;;12.30;37.09;101595.31;4473442;32;34116;-84
2024/01/28 02:48:02;;;;;;;;;;;;;;;12.62;36.13;101589.63;4478044;32;32950;-83
2024/01/28 02:50:29;;;;;;;;;;;;;;;12.22;36.91;101594.81;4461729;32;33882;-86
2024/01/28 02:52:57;;;;;;;;;;;;;;;12.07;37.42;101588.56;4469083;32;33689;-83
2024/01/28 02:55:24;;;;;;;;;;;;;;;12.31;36.97;101598.03;4471905;32;34219;-83
2024/01/28 02:57:52;;;;;;;;;;;;;;;12.43;36.15;101591.84;4479192;32;33087;-83
2024/01/28 03:00:19;;;;;;;;;;;;;;;12.35;36.34;101587.03;4461451;32;34692;-83
2024/01/28 03:02:47;;;;;;;;;;;;;;;12.17;36.65;101593.63;4468846;32;33454;-84
2024/01/28 03:05:14;;;;;;;;;;;;;;;12.31;36.85;101591.94;4469676;32;34464;-85
2024/01/28 03:07:41;;;;;;;;;;;;;;;12.46;36.77;101592.03;4454443;32;33338;-87
2024/01/28 03:10:09;;;;;;;;;;;;;;;11.81;37.67;101588.56;4470115;32;34982;-83
2024/01/28 03:12:36;;;;;;;;;;;;;;;11.98;37.67;101581.97;4470919;32;33811;-82
2024/01/28 03:15:04;;;;;;;;;;;;;;;11.84;37.59;101582.72;4474505;32;33928;-86
2024/01/28 03:17:31;;;;;;;;;;;;;;;11.89;37.05;101586.53;4471228;32;32960;-86
2024/01/28 03:19:59;;;;;;;;;;;;;;;11.34;37.46;101586.19;4480063;32;34307;-82
2024/01/28 03:22:26;;;;;;;;;;;;;;;10.80;38.34;101579.78;4480159;32;34854;-85
2024/01/28 03:24:55;;;;;;;;;;;;;;;9.96;39.80;101584.75;4481287;32;33717;-86
2024/01/28 03:27:22;;;;;;;;;;;;;;;9.15;41.48;101597.47;4472433;32;33109;-85
2024/01/28 03:29:49;;;;;;;;;;;;;;;9.32;41.28;101596.22;4476805;32;33746;-83
2024/01/28 03:32:17;;;;;;;;;;;;;;;9.05;41.95;101594.97;4475730;32;33572;-84
2024/01/28 03:34:44;;;;;;;;;;;;;;;9.60;41.04;101598.38;4470846;32;34328;-86
2024/01/28 03:37:11;;;;;;;;;;;;;;;10.17;40.05;101602.72;4470607;32;34052;-86
2024/01/28 03:39:39;;;;;;;;;;;;;;;10.53;39.28;101611.47;4480995;32;34646;-82
2024/01/28 03:42:07;;;;;;;;;;;;;;;10.54;39.37;101618.44;4478439;32;34171;-83
2024/01/28 03:44:34;;;;;;;;;;;;;;;10.60;39.23;101616.28;4474264;32;33622;-85
2024/01/28 03:47:01;;;;;;;;;;;;;;;10.55;39.42;101610.78;4470507;32;33950;-84
2024/01/28 03:49:28;;;;;;;;;;;;;;;10.49;39.39;101609.41;4474015;32;34908;-85
2024/01/28 03:51:56;;;;;;;;;;;;;;;10.91;38.92;101610.75;4479649;32;34565;-84
2024/01/28 03:54:23;;;;;;;;;;;;;;;11.28;38.30;101613.37;4470598;32;35231;-85
2024/01/28 03:56:51;;;;;;;;;;;;;;;10.77;39.24;101607.16;4470568;32;33492;-83
2024/01/28 03:59:19;;;;;;;;;;;;;;;11.35;38.05;101605.25;4470317;32;34676;-84
2024/01/28 04:01:46;;;;;;;;;;;;;;;11.17;38.00;101608.34;4470498;32;34399;-84
2024/01/28 04:04:14;;;;;;;;;;;;;;;11.23;38.19;101609.59;4470382;32;33422;-84
2024/01/28 04:06:43;;;;;;;;;;;;;;;10.79;38.69;101611.66;4482137;32;33087;-83
2024/01/28 04:09:10;;;;;;;;;;;;;;;10.76;39.17;101627.00;4473148;32;34202;-83
2024/01/28 04:11:38;;;;;;;;;;;;;;;10.08;40.63;101631.38;4481067;32;34104;-85
2024/01/28 04:14:05;;;;;;;;;;;;;;;9.63;41.55;101624.50;4473663;32;34028;-85
2024/01/28 04:16:33;;;;;;;;;;;;;;;10.23;40.58;101626.47;4457905;32;33507;-85
2024/01/28 04:19:00;;;;;;;;;;;;;;;10.49;40.03;101619.78;4483120;32;34040;-84
2024/01/28 04:21:29;;;;;;;;;;;;;;;10.53;39.73;101639.97;4472489;32;35113;-84
2024/01/28 04:23:56;;;;;;;;;;;;;;;10.30;40.28;101633.97;4463313;32;34390;-84
2024/01/28 04:26:24;;;;;;;;;;;;;;;10.69;39.91;101629.94;4476336;32;33988;-84
2024/01/28 04:28:51;;;;;;;;;;;;;;;11.28;38.64;101634.16;4482961;32;35407;-85
2024/01/28 04:31:20;;;;;;;;;;;;;;;10.92;39.26;101639.41;4474818;32;34169;-84
2024/01/28 04:33:47;;;;;;;;;;;;;;;10.72;39.51;101648.31;4476062;32;34703;-85
2024/01/28 04:36:15;;;;;;;;;;;;;;;11.14;38.75;101647.03;4485673;32;34123;-86
2024/01/28 04:38:42;;;;;;;;;;;;;;;11.17;38.70;101652.44;4473860;32;34833;-87
2024/01/28 04:41:09;;;;;;;;;;;;;;;11.73;37.69;101656.38;4478360;32;34128;-85
2024/01/28 04:43:38;;;;;;;;;;;;;;;11.28;37.78;101661.00;4474353;32;33552;-86
2024/01/28 04:46:05;;;;;;;;;;;;;;;10.95;38.86;101669.81;4478023;32;33219;-86
2024/01/28 04:48:33;;;;;;;;;;;;;;;10.94;39.72;101673.22;4481130;32;34252;-86
2024/01/28 04:51:01;;;;;;;;;;;;;;;11.38;38.34;101665.16;4458529;32;33860;-84
2024/01/28 04:53:28;;;;;;;;;;;;;;;11.20;39.13;101673.44;4472230;32;34814;-84
2024/01/28 04:55:55;;;;;;;;;;;;;;;11.87;37.65;101671.19;4473179;32;33431;-84
2024/01/28 04:58:22;;;;;;;;;;;;;;;11.41;38.61;101673.16;4480036;32;33971;-86
2024/01/28 05:00:50;;;;;;;;;;;;;;;11.16;39.21;101681.78;4459384;32;34811;-84
2024/01/28 05:03:18;;;;;;;;;;;;;;;10.95;39.40;101681.13;4456821;32;32574;-84
2024/01/28 05:05:45;;;;;;;;;;;;;;;11.02;39.42;101692.81;4461527;32;31868;-84
2024/01/28 05:08:12;;;;;;;;;;;;;;;11.11;39.37;101693.50;4476575;32;34595;-84
2024/01/28 05:10:40;;;;;;;;;;;;;;;11.65;38.82;101693.84;4470150;32;34695;-84
2024/01/28 05:13:07;;;;;;;;;;;;;;;11.63;38.95;101695.44;4470101;32;34900;-84
2024/01/28 05:15:34;;;;;;;;;;;;;;;11.53;39.04;101693.88;4475561;32;33849;-83
2024/01/28 05:18:02;;;;;;;;;;;;;;;12.02;38.14;101688.69;4478372;32;34136;-84
2024/01/28 05:20:29;;;;;;;;;;;;;;;12.46;37.28;101680.38;4479975;32;33920;-85
2024/01/28 05:22:59;;;;;;;;;;;;;;;12.02;38.27;101691.28;4480613;32;33957;-84
2024/01/28 05:25:28;;;;;;;;;;;;;;;11.80;38.63;101680.25;4482031;32;32528;-86
2024/01/28 05:27:55;;;;;;;;;;;;;;;12.19;37.97;101695.94;4464912;32;34297;-83
2024/01/28 05:30:22;;;;;;;;;;;;;;;11.91;38.52;101688.81;4476296;32;33836;-83
2024/01/28 05:32:50;;;;;;;;;;;;;;;12.53;37.42;101688.69;4477503;32;34256;-84
2024/01/28 05:35:18;;;;;;;;;;;;;;;11.76;38.80;101692.91;4472728;32;33377;-85
2024/01/28 05:37:45;;;;;;;;;;;;;;;11.20;40.07;101704.56;4479915;32;34286;-85
2024/01/28 05:40:12;;;;;;;;;;;;;;;11.54;39.45;101711.25;4476158;32;34227;-86
2024/01/28 05:42:40;;;;;;;;;;;;;;;11.44;39.61;101701.91;4471699;32;34213;-84
2024/01/28 05:45:07;;;;;;;;;;;;;;;11.71;39.11;101705.56;4478693;32;33236;-84
2024/01/28 05:47:35;;;;;;;;;;;;;;;11.83;39.09;101710.72;4478714;32;34073;-83
2024/01/28 05:50:03;;;;;;;;;;;;;;;11.98;38.77;101705.75;4480093;32;33640;-85
2024/01/28 05:52:30;;;;;;;;;;;;;;;12.02;38.68;101704.25;4482372;32;34251;-85
2024/01/28 05:54:57;;;;;;;;;;;;;;;11.65;39.33;101705.16;4472112;32;33827;-83
2024/01/28 05:57:25;;;;;;;;;;;;;;;11.49;39.88;101713.53;4471798;32;34827;-85
2024/01/28 05:59:52;;;;;;;;;;;;;;;11.92;39.18;101710.53;4472577;32;33970;-83
2024/01/28 06:02:21;;;;;;;;;;;;;;;11.99;39.08;101705.84;4472248;32;34270;-85
2024/01/28 06:04:48;;;;;;;;;;;;;;;12.02;38.85;101712.06;4480935;32;34169;-85
2024/01/28 06:07:16;;;;;;;;;;;;;;;12.69;37.71;101713.12;4478683;32;33352;-84
2024/01/28 06:09:43;;;;;;;;;;;;;;;13.00;37.19;101718.69;4476649;32;35057;-84
2024/01/28 06:12:11;;;;;;;;;;;;;;;12.77;37.48;101720.66;4479113;32;34523;-83
2024/01/28 06:14:38;;;;;;;;;;;;;;;12.94;37.23;101728.66;4476500;32;33502;-85
2024/01/28 06:17:05;;;;;;;;;;;;;;;12.86;37.29;101730.75;4473004;32;34781;-84
2024/01/28 06:19:33;;;;;;;;;;;;;;;12.14;38.67;101736.28;4472405;32;34027;-84
2024/01/28 06:22:02;;;;;;;;;;;;;;;12.02;39.01;101732.84;4479412;32;35003;-84
2024/01/28 06:24:30;;;;;;;;;;;;;;;12.56;38.06;101740.91;4460230;32;33440;-85
2024/01/28 06:26:57;;;;;;;;;;;;;;;12.12;39.00;101735.28;4472392;32;34748;-84
2024/01/28 06:29:24;;;;;;;;;;;;;;;12.03;39.20;101745.00;4475772;32;34257;-83
2024/01/28 06:31:52;;;;;;;;;;;;;;;12.35;38.86;101755.94;4475471;32;33531;-85
2024/01/28 06:34:20;;;;;;;;;;;;;;;12.07;39.04;101752.22;4477440;32;34044;-81
2024/01/28 06:36:47;;;;;;;;;;;;;;;11.81;39.88;101753.84;4470958;32;33882;-85
2024/01/28 06:39:15;;;;;;;;;;;;;;;12.25;39.06;101750.03;4469305;32;33656;-83
2024/01/28 06:41:43;;;;;;;;;;;;;;;11.77;39.88;101762.22;4461650;32;34388;-85
2024/01/28 06:44:10;;;;;;;;;;;;;;;12.10;39.39;101758.53;4471723;32;32898;-83
2024/01/28 06:46:38;;;;;;;;;;;;;;;12.10;39.62;101757.66;4470851;32;33930;-85
2024/01/28 06:49:05;;;;;;;;;;;;;;;12.11;39.66;101755.16;4471585;32;34420;-84
2024/01/28 06:51:33;;;;;;;;;;;;;;;12.25;39.24;101758.72;4474809;32;34489;-84
2024/01/28 06:54:00;;;;;;;;;;;;;;;12.24;39.40;101762.09;4477965;32;33522;-84
2024/01/28 06:56:28;;;;;;;;;;;;;;;12.29;39.24;101765.91;4468062;32;34738;-84
2024/01/28 06:58:55;;;;;;;;;;;;;;;11.39;40.75;101769.03;4473112;32;34293;-84
2024/01/28 07:01:23;;;;;;;;;;;;;;;11.97;39.89;101776.66;4480320;32;33655;-83
2024/01/28 07:03:51;;;;;;;;;;;;;;;12.76;38.45;101770.84;4473017;32;33941;-85
2024/01/28 07:06:18;;;;;;;;;;;;;;;12.05;39.82;101769.41;4472126;32;34425;-83
2024/01/28 07:08:46;;;;;;;;;;;;;;;11.18;41.13;101781.38;4477213;32;33970;-83
2024/01/28 07:11:13;;;;;;;;;;;;;;;11.48;41.18;101774.00;4477315;32;34528;-83
2024/01/28 07:13:40;;;;;;;;;;;;;;;11.38;41.38;101774.12;4477444;32;34221;-82
2024/01/28 07:16:10;;;;;;;;;;;;;;;11.65;41.02;101780.44;4474687;32;34024;-84
2024/01/28 07:18:39;;;;;;;;;;;;;;;10.94;42.67;101780.41;4471094;32;33944;-83
2024/01/28 07:21:06;;;;;;;;;;;;;;;11.46;41.75;101780.78;4471398;32;34840;-83
2024/01/28 07:23:34;;;;;;;;;;;;;;;11.07;42.71;101776.13;4456594;32;31589;-84
2024/01/28 07:26:01;;;;;;;;;;;;;;;10.37;44.06;101778.72;4475696;32;34482;-83
2024/01/28 07:28:28;;;;;;;;;;;;;;;10.87;43.19;101791.09;4469107;32;34124;-83
2024/01/28 07:30:56;;;;;;;;;;;;;;;10.72;43.69;101788.28;4476586;32;34601;-84
2024/01/28 07:33:23;;;;;;;;;;;;;;;10.79;43.36;101789.63;4468658;32;34221;-84
2024/01/28 07:35:51;;;;;;;;;;;;;;;10.75;43.63;101790.19;4478943;32;34041;-84
2024/01/28 07:38:18;;;;;;;;;;;;;;;10.53;43.97;101792.84;4475984;32;33905;-84
2024/01/28 07:40:46;;;;;;;;;;;;;;;10.62;44.16;101803.91;4471147;32;34901;-84
2024/01/28 07:43:13;;;;;;;;;;;;;;;10.59;44.37;101788.12;4471937;32;33441;-84
2024/01/28 07:45:42;;;;;;;;;;;;;;;10.08;45.35;101796.22;4460223;32;34892;-83
2024/01/28 07:48:10;;;;;;;;;;;;;;;9.62;46.76;101799.53;4475266;32;34937;-84
2024/01/28 07:50:38;;;;;;;;;;;;;;;9.51;46.96;101795.19;4482048;32;34586;-83
2024/01/28 07:53:05;;;;;;;;;;;;;;;9.93;46.19;101794.22;4462153;32;33603;-83
2024/01/28 07:55:33;;;;;;;;;;;;;;;9.64;47.21;101797.09;4459875;32;34825;-83
2024/01/28 07:58:00;;;;;;;;;;;;;;;9.64;47.05;101795.41;4471830;32;34039;-83
2024/01/28 08:00:27;;;;;;;;;;;;;;;10.12;45.78;101795.66;4472633;32;34827;-83
2024/01/28 08:02:55;;;;;;;;;;;;;;;10.24;45.62;101800.13;4474334;32;33205;-84
2024/01/28 08:05:23;;;;;;;;;;;;;;;10.10;45.80;101794.66;4472326;32;34022;-83
2024/01/28 08:07:50;;;;;;;;;;;;;;;10.53;45.25;101809.28;4472359;32;34066;-83
2024/01/28 08:10:18;;;;;;;;;;;;;;;10.57;45.02;101805.25;4470977;32;33854;-81
2024/01/28 08:12:45;;;;;;;;;;;;;;;10.80;44.61;101810.50;4478196;32;31831;-81
2024/01/28 08:15:12;;;;;;;;;;;;;;;10.84;44.17;101800.38;4475140;32;33636;-83
2024/01/28 08:17:40;;;;;;;;;;;;;;;10.92;44.24;101805.34;4470336;32;34288;-82
2024/01/28 08:20:07;;;;;;;;;;;;;;;11.27;43.74;101807.06;4475042;32;34270;-83
2024/01/28 08:22:35;;;;;;;;;;;;;;;11.62;43.18;101808.75;4476814;32;33350;-84
2024/01/28 08:25:04;;;;;;;;;;;;;;;11.57;42.69;101815.28;4474113;32;33578;-83
2024/01/28 08:27:31;;;;;;;;;;;;;;;10.93;44.36;101819.19;4462469;32;33905;-82
2024/01/28 08:29:59;;;;;;;;;;;;;;;11.13;44.04;101820.72;4475548;32;34186;-82
2024/01/28 08:32:26;;;;;;;;;;;;;;;11.37;43.61;101827.69;4473702;32;34111;-82
2024/01/28 08:34:54;;;;;;;;;;;;;;;11.92;42.31;101830.88;4480127;32;34243;-81
2024/01/28 08:37:22;;;;;;;;;;;;;;;12.13;41.78;101828.91;4480703;32;33558;-81
2024/01/28 08:39:50;;;;;;;;;;;;;;;12.27;41.49;101821.19;4467897;32;34885;-84
2024/01/28 08:42:18;;;;;;;;;;;;;;;12.08;41.68;101817.28;4476678;32;33834;-83
2024/01/28 08:44:46;;;;;;;;;;;;;;;11.70;42.24;101827.47;4476358;32;33970;-83
2024/01/28 08:47:14;;;;;;;;;;;;;;;11.91;41.86;101834.25;4472153;32;33901;-83
2024/01/28 08:49:41;;;;;;;;;;;;;;;12.06;41.78;101828.34;4473955;32;34392;-81
2024/01/28 08:52:09;;;;;;;;;;;;;;;11.81;42.19;101844.72;4477040;32;33962;-83
2024/01/28 08:54:37;;;;;;;;;;;;;;;11.24;47.56;101839.66;4471032;32;33897;-84
2024/01/28 08:57:05;;;;;;;;;;;;;;;11.87;42.52;101847.78;4459899;32;33977;-84
2024/01/28 08:59:32;;;;;;;;;;;;;;;12.20;41.63;101851.91;4478299;32;33678;-83
2024/01/28 09:02:00;;;;;;;;;;;;;;;12.30;41.58;101845.66;4477332;32;32925;-80
2024/01/28 09:04:31;;;;;;;;;;;;;;;12.55;40.91;101852.59;4473837;32;34020;-83
2024/01/28 09:06:58;;;;;;;;;;;;;;;12.03;41.69;101856.69;4453356;32;33786;-83
2024/01/28 09:09:26;;;;;;;;;;;;;;;12.26;41.41;101859.25;4451105;32;33913;-82
2024/01/28 09:11:53;;;;;;;;;;;;;;;12.02;41.91;101867.91;4449641;32;34200;-80
2024/01/28 09:14:24;;;;;;;;;;;;;;;12.46;41.04;101872.72;4449445;32;34100;-80
2024/01/28 09:16:52;;;;;;;;;;;;;;;12.63;40.79;101882.62;4442421;32;34323;-84
2024/01/28 09:19:19;;;;;;;;;;;;;;;12.49;40.77;101878.16;4446587;32;34616;-83
2024/01/28 09:21:46;;;;;;;;;;;;;;;12.27;45.87;101876.66;4452399;32;33759;-83
2024/01/28 09:24:14;;;;;;;;;;;;;;;12.96;44.10;101883.12;4450565;32;34269;-84
2024/01/28 09:26:42;;;;;;;;;;;;;;;13.69;39.00;101868.06;4451510;32;34652;-81
2024/01/28 09:29:13;;;;;;;;;;;;;;;12.95;41.43;101871.84;4447782;32;34926;-83
2024/01/28 09:31:45;;;;;;;;;;;;;;;13.55;39.39;101877.59;4444851;32;34065;-83
2024/01/28 09:34:12;;;;;;;;;;;;;;;13.32;39.65;101878.66;4445856;32;33692;-84
2024/01/28 09:36:40;;;;;;;;;;;;;;;13.37;39.46;101872.97;4451143;32;33884;-83
2024/01/28 09:39:07;;;;;;;;;;;;;;;12.84;40.75;101887.50;4452211;32;34699;-85
2024/01/28 09:41:44;;;;;;;;;;;;;;;13.00;40.23;101890.38;4453138;32;33220;-85
2024/01/28 09:44:11;;;;;;;;;;;;;;;13.15;39.97;101901.84;4451349;32;34195;-83
2024/01/28 09:46:39;;;;;;;;;;;;;;;13.40;39.78;101900.91;4450123;32;34325;-84
2024/01/28 09:49:11;;;;;;;;;;;;;;;13.03;40.19;101895.78;4442827;32;34762;-81
2024/01/28 09:51:39;;;;;;;;;;;;;;;13.36;40.05;101896.28;4446046;32;33243;-82
2024/01/28 09:54:08;;;;;;;;;;;;;;;14.27;38.44;101890.03;4448396;32;34877;-83
2024/01/28 09:56:35;;;;;;;;;;;;;;;14.39;38.09;101896.84;4443830;32;34291;-83
2024/01/28 09:59:04;;;;;;;;;;;;;;;14.29;38.24;101893.69;4440348;32;34991;-84
2024/01/28 10:01:31;;;;;;;;;;;;;;;14.72;37.28;101898.97;4441845;32;33808;-83
2024/01/28 10:04:00;;;;;;;;;;;;;;;14.87;36.85;101898.09;4443933;32;34115;-84
2024/01/28 10:06:27;;;;;;;;;;;;;;;15.20;36.40;101898.34;4442533;32;32400;-81
2024/01/28 10:08:55;;;;;;;;;;;;;;;15.80;35.47;101897.53;4472949;32;34162;-83
2024/01/28 10:11:22;;;;;;;;;;;;;;;15.55;35.59;101895.19;4473944;32;33465;-83
2024/01/28 10:13:50;;;;;;;;;;;;;;;15.02;36.20;101891.19;4464031;32;34760;-83
2024/01/28 10:16:24;;;;;;;;;;;;;;;16.05;34.61;101873.69;4464499;32;32315;-82
2024/01/28 10:18:51;;;;;;;;;;;;;;;15.62;35.17;101889.50;4456830;32;33033;-82
2024/01/28 10:21:19;;;;;;;;;;;;;;;15.90;34.53;101892.00;4471040;32;33458;-82
2024/01/28 10:23:46;;;;;;;;;;;;;;;15.58;35.20;101891.84;4471195;32;34088;-82
2024/01/28 10:26:15;;;;;;;;;;;;;;;15.39;36.12;101888.16;4474637;32;33886;-83
2024/01/28 10:28:42;;;;;;;;;;;;;;;16.02;35.16;101883.97;4476067;32;34105;-83
2024/01/28 10:31:09;;;;;;;;;;;;;;;15.98;35.59;101881.09;4475970;32;33945;-82
2024/01/28 10:33:37;;;;;;;;;;;;;;;16.21;34.58;101870.19;4476822;32;33032;-84
2024/01/28 10:36:06;;;;;;;;;;;;;;;15.66;35.12;101864.44;4477241;32;34847;-81
2024/01/28 10:38:33;;;;;;;;;;;;;;;15.59;35.37;101867.50;4474492;32;34059;-83
2024/01/28 10:41:00;;;;;;;;;;;;;;;15.51;35.72;101865.38;4460016;32;33296;-84
2024/01/28 10:43:29;;;;;;;;;;;;;;;15.62;35.25;101859.88;4462952;32;33898;-83
2024/01/28 10:45:57;;;;;;;;;;;;;;;15.62;35.40;101862.47;4460475;32;34639;-81
2024/01/28 10:48:24;;;;;;;;;;;;;;;15.23;35.81;101859.38;4465306;32;34654;-84
2024/01/28 10:50:52;;;;;;;;;;;;;;;15.66;35.38;101849.66;4480368;32;32981;-82
2024/01/28 10:53:20;;;;;;;;;;;;;;;15.87;35.60;101836.94;4476734;32;34966;-82
2024/01/28 10:55:49;;;;;;;;;;;;;;;15.66;35.61;101846.16;4460700;32;34046;-83
2024/01/28 10:58:18;;;;;;;;;;;;;;;15.98;34.86;101834.06;4475313;32;33607;-83
2024/01/28 11:00:45;;;;;;;;;;;;;;;15.58;35.53;101842.22;4475314;32;33618;-81
2024/01/28 11:03:13;;;;;;;;;;;;;;;15.34;35.85;101843.50;4456656;32;34282;-85
2024/01/28 11:05:40;;;;;;;;;;;;;;;15.46;35.68;101838.09;4458835;32;33740;-82
2024/01/28 11:08:08;;;;;;;;;;;;;;;15.63;35.29;101836.44;4457356;32;34833;-82
2024/01/28 11:10:35;;;;;;;;;;;;;;;15.83;35.53;101837.59;4460455;32;32777;-81
2024/01/28 11:13:03;;;;;;;;;;;;;;;16.23;34.82;101839.81;4464144;32;34915;-83
2024/01/28 11:15:31;;;;;;;;;;;;;;;16.04;36.26;101834.38;4464406;32;32481;-83
2024/01/28 11:18:01;;;;;;;;;;;;;;;16.41;35.07;101831.16;4471064;32;34182;-82
2024/01/28 11:20:32;;;;;;;;;;;;;;;15.94;40.81;101839.94;4476444;32;32775;-82
2024/01/28 11:23:01;;;;;;;;;;;;;;;16.51;34.62;101838.66;4462664;32;34022;-83
2024/01/28 11:25:29;;;;;;;;;;;;;;;16.24;37.11;101831.13;4475919;32;33859;-85
2024/01/28 11:27:57;;;;;;;;;;;;;;;16.39;34.38;101830.16;4463894;32;32376;-83
2024/01/28 11:30:25;;;;;;;;;;;;;;;16.07;34.76;101829.31;4471213;32;33372;-82
2024/01/28 11:32:57;;;;;;;;;;;;;;;16.24;34.44;101832.84;4476516;32;36332;-81
2024/01/28 11:35:25;;;;;;;;;;;;;;;16.56;33.68;101831.97;4463767;32;34515;-82
2024/01/28 11:37:56;;;;;;;;;;;;;;;16.59;33.74;101823.37;4467373;32;34361;-80
2024/01/28 11:40:24;;;;;;;;;;;;;;;16.89;33.46;101822.38;4476550;32;33309;-81
2024/01/28 11:42:54;;;;;;;;;;;;;;;16.51;34.10;101822.97;4466556;32;35681;-82
2024/01/28 11:45:22;;;;;;;;;;;;;;;16.41;34.12;101820.69;4466863;32;32404;-82
2024/01/28 11:47:50;;;;;;;;;;;;;;;16.68;33.36;101818.62;4469892;32;33952;-81
2024/01/28 11:50:18;;;;;;;;;;;;;;;16.67;33.48;101819.47;4470735;32;34049;-82
2024/01/28 11:52:45;;;;;;;;;;;;;;;16.99;33.17;101810.66;4469958;32;34214;-81
2024/01/28 11:55:13;;;;;;;;;;;;;;;17.16;32.95;101805.41;4473865;32;33538;-82
2024/01/28 11:57:41;;;;;;;;;;;;;;;17.26;32.87;101818.12;4473126;32;34184;-81
2024/01/28 12:00:09;;;;;;;;;;;;;;;17.68;32.06;101815.81;4459644;32;33938;-82
2024/01/28 12:02:37;;;;;;;;;;;;;;;17.73;32.19;101816.00;4470642;32;35174;-81
2024/01/28 12:05:08;;;;;;;;;;;;;;;17.74;31.63;101813.47;4468656;32;34426;-82
2024/01/28 12:07:36;;;;;;;;;;;;;;;17.65;31.98;101808.69;4465772;32;34256;-84
2024/01/28 12:10:08;;;;;;;;;;;;;;;17.43;32.14;101811.97;4469294;32;34076;-81
2024/01/28 12:12:35;;;;;;;;;;;;;;;17.69;31.58;101804.47;4458272;32;33813;-83
2024/01/28 12:15:03;;;;;;;;;;;;;;;18.21;30.55;101804.31;4470397;32;33885;-82
2024/01/28 12:17:37;;;;;;;;;;;;;;;17.50;31.41;101813.19;4476698;32;34828;-79
2024/01/28 12:20:05;;;;;;;;;;;;;;;17.73;31.31;101822.19;4465713;32;34025;-83
2024/01/28 12:22:39;;;;;;;;;;;;;;;18.05;30.75;101809.72;4474183;32;34093;-82
2024/01/28 12:25:08;;;;;;;;;;;;;;;17.98;30.68;101807.63;4470359;32;35154;-83
2024/01/28 12:27:36;;;;;;;;;;;;;;;17.66;31.28;101804.34;4448208;32;32654;-83
2024/01/28 12:30:03;;;;;;;;;;;;;;;18.20;29.96;101805.16;4457400;32;33414;-85
2024/01/28 12:32:31;;;;;;;;;;;;;;;18.62;29.86;101810.56;4475624;32;33284;-83
2024/01/28 12:35:03;;;;;;;;;;;;;;;18.34;30.07;101804.91;4469177;32;34208;-84
2024/01/28 12:37:31;;;;;;;;;;;;;;;17.97;30.49;101800.59;4470944;32;34129;-81
2024/01/28 12:39:59;;;;;;;;;;;;;;;18.20;30.08;101804.28;4477673;32;33311;-82